Time;durP1;ratioP1;P1;durP2;ratioP2;P2;SDS_P1;SDS_P2;PMS_P1;PMS_P2;Temp;Humidity;BMP_temperature;BMP_pressure;BME280_temperature;BME280_humidity;BME280_pressure;Samples;Min_cycle;Max_cycle;Signal;HPM_P1;HPM_P2
2024/04/21 00:00:09;;;;;;;19.17;7.37;;;;;;;;;;5502766;26;20579;-80
2024/04/21 00:02:35;;;;;;;21.63;7.25;;;;;;;;;;5481980;26;20563;-81
2024/04/21 00:05:01;;;;;;;8.15;7.07;;;;;;;;;;5470952;26;20315;-79
2024/04/21 00:07:27;;;;;;;9.83;7.50;;;;;;;;;;5487539;26;20239;-80
2024/04/21 00:09:53;;;;;;;11.47;7.30;;;;;;;;;;5481384;26;20454;-81
2024/04/21 00:12:19;;;;;;;7.63;6.87;;;;;;;;;;5492999;26;20834;-80
2024/04/21 00:14:45;;;;;;;13.53;7.30;;;;;;;;;;5476536;26;20501;-80
2024/04/21 00:17:11;;;;;;;13.02;7.70;;;;;;;;;;5476893;26;20466;-79
2024/04/21 00:19:37;;;;;;;13.87;6.90;;;;;;;;;;5485229;26;20601;-79
2024/04/21 00:22:03;;;;;;;14.63;7.70;;;;;;;;;;5493497;26;20449;-79
2024/04/21 00:24:30;;;;;;;16.92;6.72;;;;;;;;;;5492883;26;20473;-80
2024/04/21 00:26:56;;;;;;;7.60;6.90;;;;;;;;;;5488045;26;20271;-79
2024/04/21 00:29:22;;;;;;;11.43;6.82;;;;;;;;;;5487429;26;20771;-79
2024/04/21 00:31:48;;;;;;;12.68;6.25;;;;;;;;;;5488604;26;20232;-80
2024/04/21 00:34:14;;;;;;;11.95;6.85;;;;;;;;;;5488000;26;20348;-81
2024/04/21 00:36:40;;;;;;;9.83;6.93;;;;;;;;;;5485398;26;20232;-81
2024/04/21 00:39:06;;;;;;;11.63;6.57;;;;;;;;;;5503560;26;20498;-82
2024/04/21 00:41:33;;;;;;;15.25;8.20;;;;;;;;;;5484974;26;20232;-80
2024/04/21 00:43:59;;;;;;;15.60;6.72;;;;;;;;;;5490211;26;20236;-82
2024/04/21 00:46:25;;;;;;;9.65;6.20;;;;;;;;;;5492385;26;20313;-81
2024/04/21 00:48:51;;;;;;;14.30;6.57;;;;;;;;;;5486618;26;20301;-81
2024/04/21 00:51:19;;;;;;;15.52;6.40;;;;;;;;;;5479273;26;20234;-82
2024/04/21 00:53:45;;;;;;;12.48;7.70;;;;;;;;;;5493286;26;20620;-81
2024/04/21 00:56:12;;;;;;;13.20;7.22;;;;;;;;;;5484751;26;20279;-80
2024/04/21 00:58:38;;;;;;;9.40;6.70;;;;;;;;;;5490021;26;20232;-81
2024/04/21 01:01:05;;;;;;;12.85;7.15;;;;;;;;;;5492034;26;20279;-81
2024/04/21 01:03:32;;;;;;;9.40;6.60;;;;;;;;;;5485815;26;20225;-81
2024/04/21 01:05:58;;;;;;;10.27;7.35;;;;;;;;;;5492697;26;20239;-80
2024/04/21 01:08:24;;;;;;;7.83;6.70;;;;;;;;;;5488309;26;20295;-81
2024/04/21 01:10:50;;;;;;;7.47;6.97;;;;;;;;;;5492053;26;20461;-82
2024/04/21 01:13:16;;;;;;;9.00;8.40;;;;;;;;;;5491164;26;20267;-82
2024/04/21 01:15:42;;;;;;;8.90;8.15;;;;;;;;;;5487519;26;20232;-80
2024/04/21 01:18:08;;;;;;;9.00;8.20;;;;;;;;;;5478950;26;20558;-80
2024/04/21 01:20:35;;;;;;;9.20;8.50;;;;;;;;;;5478924;26;20835;-80
2024/04/21 01:23:01;;;;;;;8.60;8.00;;;;;;;;;;5443502;26;20751;-80
2024/04/21 01:25:27;;;;;;;8.77;8.07;;;;;;;;;;5492338;26;20314;-80
2024/04/21 01:27:55;;;;;;;8.60;8.10;;;;;;;;;;5475583;26;20228;-80
2024/04/21 01:30:21;;;;;;;9.52;8.57;;;;;;;;;;5469443;26;20451;-81
2024/04/21 01:32:47;;;;;;;9.40;8.80;;;;;;;;;;5441531;26;20240;-81
2024/04/21 01:35:13;;;;;;;9.48;8.70;;;;;;;;;;5485587;26;20573;-81
2024/04/21 01:37:39;;;;;;;10.40;8.70;;;;;;;;;;5478354;26;20248;-81
2024/04/21 01:40:05;;;;;;;10.20;9.20;;;;;;;;;;5498865;26;20348;-81
2024/04/21 01:42:31;;;;;;;11.10;9.85;;;;;;;;;;5492262;26;20233;-81
2024/04/21 01:44:58;;;;;;;10.70;9.90;;;;;;;;;;5488489;26;20287;-81
2024/04/21 01:47:23;;;;;;;13.52;9.35;;;;;;;;;;5492022;26;20275;-81
2024/04/21 01:49:49;;;;;;;10.03;9.00;;;;;;;;;;5491558;26;20240;-81
2024/04/21 01:52:15;;;;;;;15.30;9.30;;;;;;;;;;5491829;26;20790;-82
2024/04/21 01:54:42;;;;;;;10.70;9.00;;;;;;;;;;5484847;26;20457;-82
2024/04/21 01:57:08;;;;;;;10.30;9.55;;;;;;;;;;5483660;26;20474;-81
2024/04/21 01:59:34;;;;;;;10.88;9.23;;;;;;;;;;5489615;26;20279;-81
2024/04/21 02:02:00;;;;;;;11.65;9.30;;;;;;;;;;5489285;26;20263;-81
2024/04/21 02:04:26;;;;;;;12.23;10.95;;;;;;;;;;5491234;26;20233;-81
2024/04/21 02:06:52;;;;;;;10.90;10.00;;;;;;;;;;5491409;26;20240;-81
2024/04/21 02:09:18;;;;;;;10.68;9.70;;;;;;;;;;5491579;26;20539;-81
2024/04/21 02:11:44;;;;;;;17.13;9.90;;;;;;;;;;5488148;26;20250;-81
2024/04/21 02:14:10;;;;;;;11.03;9.40;;;;;;;;;;5481364;26;20342;-81
2024/04/21 02:16:36;;;;;;;10.10;9.17;;;;;;;;;;5486797;26;20513;-81
2024/04/21 02:19:02;;;;;;;11.35;10.15;;;;;;;;;;5487895;26;20544;-81
2024/04/21 02:21:28;;;;;;;9.90;9.20;;;;;;;;;;5484167;26;20631;-81
2024/04/21 02:23:54;;;;;;;10.70;9.50;;;;;;;;;;5478609;26;20461;-81
2024/04/21 02:26:20;;;;;;;10.70;9.80;;;;;;;;;;5483972;26;20450;-81
2024/04/21 02:28:46;;;;;;;16.63;10.70;;;;;;;;;;5487128;26;20622;-81
2024/04/21 02:31:12;;;;;;;10.03;9.30;;;;;;;;;;5473914;26;20475;-82
2024/04/21 02:33:38;;;;;;;12.13;10.03;;;;;;;;;;5491159;26;20572;-82
2024/04/21 02:36:04;;;;;;;12.27;9.77;;;;;;;;;;5488006;26;20542;-81
2024/04/21 02:38:30;;;;;;;13.40;11.00;;;;;;;;;;5492892;26;20275;-81
2024/04/21 02:40:57;;;;;;;11.30;10.50;;;;;;;;;;5482745;26;20245;-82
2024/04/21 02:43:23;;;;;;;10.93;10.32;;;;;;;;;;5493617;26;20231;-81
2024/04/21 02:45:49;;;;;;;10.75;9.80;;;;;;;;;;5482504;26;20591;-82
2024/04/21 02:48:15;;;;;;;11.73;9.97;;;;;;;;;;5478429;26;20226;-82
2024/04/21 02:50:41;;;;;;;10.98;9.93;;;;;;;;;;5483656;26;20508;-83
2024/04/21 02:53:07;;;;;;;10.10;9.50;;;;;;;;;;5493825;26;20374;-82
2024/04/21 02:55:33;;;;;;;11.30;10.43;;;;;;;;;;5493718;26;20971;-82
2024/04/21 02:58:00;;;;;;;9.63;9.10;;;;;;;;;;5491635;26;20289;-82
2024/04/21 03:00:26;;;;;;;11.65;10.23;;;;;;;;;;5490668;26;20516;-83
2024/04/21 03:02:52;;;;;;;10.27;9.57;;;;;;;;;;5486868;26;20241;-83
2024/04/21 03:05:18;;;;;;;12.77;9.35;;;;;;;;;;5489084;26;20652;-83
2024/04/21 03:07:43;;;;;;;12.50;9.67;;;;;;;;;;5493816;26;20231;-84
2024/04/21 03:10:10;;;;;;;10.57;9.70;;;;;;;;;;5492893;26;20457;-82
2024/04/21 03:12:36;;;;;;;9.85;9.30;;;;;;;;;;5474509;26;20509;-83
2024/04/21 03:15:02;;;;;;;15.18;10.20;;;;;;;;;;5484535;26;20228;-83
2024/04/21 03:17:28;;;;;;;11.18;10.23;;;;;;;;;;5475453;26;20242;-82
2024/04/21 03:19:54;;;;;;;11.07;10.13;;;;;;;;;;5488482;26;20303;-83
2024/04/21 03:22:20;;;;;;;11.70;10.60;;;;;;;;;;5503186;26;20635;-83
2024/04/21 03:24:46;;;;;;;11.30;10.30;;;;;;;;;;5486378;26;20475;-83
2024/04/21 03:27:12;;;;;;;15.60;11.63;;;;;;;;;;5483768;26;20232;-83
2024/04/21 03:29:38;;;;;;;11.20;10.40;;;;;;;;;;5486619;26;20457;-82
2024/04/21 03:32:04;;;;;;;10.38;9.68;;;;;;;;;;5487392;26;20456;-83
2024/04/21 03:34:30;;;;;;;10.45;9.55;;;;;;;;;;5493829;26;20236;-83
2024/04/21 03:36:56;;;;;;;11.33;10.40;;;;;;;;;;5493139;26;20664;-83
2024/04/21 03:39:22;;;;;;;12.65;10.13;;;;;;;;;;5482868;26;20449;-83
2024/04/21 03:41:48;;;;;;;10.50;9.75;;;;;;;;;;5492506;26;20243;-83
2024/04/21 03:44:14;;;;;;;10.25;9.45;;;;;;;;;;5491926;26;20247;-83
2024/04/21 03:46:40;;;;;;;10.30;9.50;;;;;;;;;;5482353;26;20351;-82
2024/04/21 03:49:06;;;;;;;10.20;9.35;;;;;;;;;;5489879;26;20519;-82
2024/04/21 03:51:33;;;;;;;11.30;10.00;;;;;;;;;;5491641;26;20351;-83
2024/04/21 03:53:59;;;;;;;11.70;10.63;;;;;;;;;;5486824;26;20238;-83
2024/04/21 03:56:26;;;;;;;11.30;10.60;;;;;;;;;;5484097;26;20976;-83
2024/04/21 03:58:52;;;;;;;13.18;11.85;;;;;;;;;;5484604;26;20333;-83
2024/04/21 04:01:18;;;;;;;11.60;10.80;;;;;;;;;;5489803;26;20232;-83
2024/04/21 04:03:44;;;;;;;11.30;10.15;;;;;;;;;;5477641;26;20465;-82
2024/04/21 04:06:10;;;;;;;11.45;10.60;;;;;;;;;;5492049;26;20338;-83
2024/04/21 04:08:36;;;;;;;11.32;10.50;;;;;;;;;;5488616;26;20231;-83
2024/04/21 04:11:02;;;;;;;12.38;11.57;;;;;;;;;;5492038;26;20294;-83
2024/04/21 04:13:27;;;;;;;12.50;10.55;;;;;;;;;;5491949;26;20350;-83
2024/04/21 04:15:53;;;;;;;11.80;10.27;;;;;;;;;;5476379;26;20250;-83
2024/04/21 04:18:19;;;;;;;11.17;10.17;;;;;;;;;;5492318;26;20563;-83
2024/04/21 04:20:48;;;;;;;10.70;9.80;;;;;;;;;;5484551;26;20454;-83
2024/04/21 04:23:14;;;;;;;10.90;9.90;;;;;;;;;;5493261;26;20461;-83
2024/04/21 04:25:40;;;;;;;11.70;10.15;;;;;;;;;;5491322;26;20279;-84
2024/04/21 04:28:06;;;;;;;10.30;9.70;;;;;;;;;;5493010;26;20239;-83
2024/04/21 04:30:32;;;;;;;10.88;9.98;;;;;;;;;;5485561;26;20481;-83
2024/04/21 04:32:58;;;;;;;10.60;10.00;;;;;;;;;;5486985;26;20283;-83
2024/04/21 04:35:24;;;;;;;13.40;12.70;;;;;;;;;;5472040;26;20468;-83
2024/04/21 04:37:50;;;;;;;14.67;13.27;;;;;;;;;;5447833;26;20519;-83
2024/04/21 04:40:16;;;;;;;14.07;12.80;;;;;;;;;;5493678;26;20823;-83
2024/04/21 04:42:44;;;;;;;14.60;13.50;;;;;;;;;;5487134;26;20857;-83
2024/04/21 04:45:10;;;;;;;14.25;13.05;;;;;;;;;;5483631;26;20459;-82
2024/04/21 04:47:36;;;;;;;12.63;11.73;;;;;;;;;;5495977;26;20282;-83
2024/04/21 04:50:02;;;;;;;15.75;13.35;;;;;;;;;;5484067;26;20656;-83
2024/04/21 04:52:28;;;;;;;14.13;12.93;;;;;;;;;;5495851;26;20310;-82
2024/04/21 04:54:54;;;;;;;11.55;10.52;;;;;;;;;;5486106;26;20295;-82
2024/04/21 04:57:20;;;;;;;13.00;12.10;;;;;;;;;;5489575;26;20247;-83
2024/04/21 04:59:46;;;;;;;12.87;11.97;;;;;;;;;;5467604;26;20509;-83
2024/04/21 05:02:12;;;;;;;12.73;11.83;;;;;;;;;;5491680;26;21097;-83
2024/04/21 05:04:38;;;;;;;12.57;11.83;;;;;;;;;;5492430;26;20533;-83
2024/04/21 05:07:04;;;;;;;13.13;12.13;;;;;;;;;;5449838;26;20511;-83
2024/04/21 05:09:30;;;;;;;13.25;12.15;;;;;;;;;;5490421;26;20503;-83
2024/04/21 05:11:56;;;;;;;12.73;11.83;;;;;;;;;;5470269;26;20599;-82
2024/04/21 05:14:22;;;;;;;13.03;12.10;;;;;;;;;;5493311;26;20466;-83
2024/04/21 05:16:48;;;;;;;12.40;11.60;;;;;;;;;;5491713;26;20465;-83
2024/04/21 05:19:14;;;;;;;13.38;12.07;;;;;;;;;;5492423;26;20566;-83
2024/04/21 05:21:40;;;;;;;12.48;11.77;;;;;;;;;;5486164;26;20263;-83
2024/04/21 05:24:06;;;;;;;14.18;12.73;;;;;;;;;;5498253;26;20284;-83
2024/04/21 05:26:32;;;;;;;13.13;12.35;;;;;;;;;;5473298;26;20259;-83
2024/04/21 05:28:58;;;;;;;16.00;13.20;;;;;;;;;;5484720;26;20561;-83
2024/04/21 05:31:24;;;;;;;13.57;12.47;;;;;;;;;;5450488;26;20459;-83
2024/04/21 05:33:50;;;;;;;16.73;13.40;;;;;;;;;;5487070;26;20593;-83
2024/04/21 05:36:16;;;;;;;13.57;12.67;;;;;;;;;;5483438;26;20462;-83
2024/04/21 05:38:42;;;;;;;22.97;14.50;;;;;;;;;;5486238;26;20984;-81
2024/04/21 05:41:07;;;;;;;20.47;14.47;;;;;;;;;;5478216;26;20847;-82
2024/04/21 05:43:33;;;;;;;14.70;13.60;;;;;;;;;;5491178;26;20466;-81
2024/04/21 05:46:03;;;;;;;14.75;13.73;;;;;;;;;;5492340;26;20506;-81
2024/04/21 05:48:29;;;;;;;16.42;15.23;;;;;;;;;;5469742;26;20334;-81
2024/04/21 05:50:55;;;;;;;14.00;12.80;;;;;;;;;;5475193;26;20249;-81
2024/04/21 05:53:21;;;;;;;18.45;13.63;;;;;;;;;;5495920;26;20331;-81
2024/04/21 05:55:47;;;;;;;17.57;13.33;;;;;;;;;;5463700;26;20716;-81
2024/04/21 05:58:13;;;;;;;21.40;13.70;;;;;;;;;;5495998;26;20545;-81
2024/04/21 06:00:40;;;;;;;14.10;12.67;;;;;;;;;;5456624;26;20228;-81
2024/04/21 06:03:06;;;;;;;14.93;13.43;;;;;;;;;;5486876;26;20461;-80
2024/04/21 06:05:35;;;;;;;16.25;13.30;;;;;;;;;;5489954;26;20347;-81
2024/04/21 06:08:01;;;;;;;14.93;13.57;;;;;;;;;;5493249;26;20290;-81
2024/04/21 06:10:27;;;;;;;14.40;13.00;;;;;;;;;;5488879;26;20718;-80
2024/04/21 06:12:53;;;;;;;16.07;13.20;;;;;;;;;;5489459;26;20510;-81
2024/04/21 06:15:19;;;;;;;15.07;13.57;;;;;;;;;;5494692;26;20541;-81
2024/04/21 06:17:45;;;;;;;18.50;12.55;;;;;;;;;;5453920;26;20232;-80
2024/04/21 06:20:11;;;;;;;16.60;13.40;;;;;;;;;;5478138;26;20302;-80
2024/04/21 06:22:38;;;;;;;14.40;12.95;;;;;;;;;;5492905;26;20232;-80
2024/04/21 06:25:04;;;;;;;14.68;13.18;;;;;;;;;;5481689;26;20252;-80
2024/04/21 06:27:30;;;;;;;15.88;13.88;;;;;;;;;;5495323;26;20305;-80
2024/04/21 06:29:59;;;;;;;15.23;13.63;;;;;;;;;;5463656;26;20703;-80
2024/04/21 06:32:25;;;;;;;13.95;12.45;;;;;;;;;;5493543;26;20224;-80
2024/04/21 06:34:51;;;;;;;17.03;12.33;;;;;;;;;;5493445;26;20673;-80
2024/04/21 06:37:17;;;;;;;13.27;12.05;;;;;;;;;;5479880;26;20508;-80
2024/04/21 06:39:43;;;;;;;14.33;12.13;;;;;;;;;;5490594;26;20564;-80
2024/04/21 06:42:09;;;;;;;13.35;11.63;;;;;;;;;;5496087;26;20461;-80
2024/04/21 06:44:35;;;;;;;19.73;12.80;;;;;;;;;;5486160;26;20352;-80
2024/04/21 06:47:01;;;;;;;14.65;12.20;;;;;;;;;;5494974;26;20769;-80
2024/04/21 06:49:29;;;;;;;16.87;13.37;;;;;;;;;;5487298;26;20237;-80
2024/04/21 06:51:55;;;;;;;17.15;13.73;;;;;;;;;;5492150;26;21015;-80
2024/04/21 06:54:21;;;;;;;15.00;13.80;;;;;;;;;;5487653;26;20232;-80
2024/04/21 06:56:47;;;;;;;15.67;12.80;;;;;;;;;;5489370;26;20588;-80
2024/04/21 06:59:13;;;;;;;19.45;12.55;;;;;;;;;;5493516;26;20836;-80
2024/04/21 07:01:39;;;;;;;14.02;12.70;;;;;;;;;;5491603;26;20269;-80
2024/04/21 07:04:05;;;;;;;12.97;11.70;;;;;;;;;;5488537;26;20232;-80
2024/04/21 07:06:31;;;;;;;14.93;13.43;;;;;;;;;;5495496;26;20517;-80
2024/04/21 07:08:57;;;;;;;12.80;11.57;;;;;;;;;;5470956;26;20988;-80
2024/04/21 07:11:23;;;;;;;14.63;11.88;;;;;;;;;;5484723;26;20271;-80
2024/04/21 07:13:49;;;;;;;12.23;11.40;;;;;;;;;;5494358;26;20602;-80
2024/04/21 07:16:15;;;;;;;17.90;12.00;;;;;;;;;;5486162;26;20510;-79
2024/04/21 07:18:41;;;;;;;19.90;12.10;;;;;;;;;;5473658;26;20521;-80
2024/04/21 07:21:07;;;;;;;13.57;11.25;;;;;;;;;;5488050;26;21041;-80
2024/04/21 07:23:33;;;;;;;16.02;10.48;;;;;;;;;;5492902;26;20229;-80
2024/04/21 07:26:00;;;;;;;13.23;10.40;;;;;;;;;;5486752;26;20619;-79
2024/04/21 07:28:26;;;;;;;22.45;11.85;;;;;;;;;;5474470;26;20267;-80
2024/04/21 07:30:52;;;;;;;12.05;10.90;;;;;;;;;;5490700;26;20294;-81
2024/04/21 07:33:18;;;;;;;13.05;12.13;;;;;;;;;;5455129;26;20224;-78
2024/04/21 07:35:44;;;;;;;12.68;11.65;;;;;;;;;;5445867;26;20234;-78
2024/04/21 07:38:10;;;;;;;17.98;12.40;;;;;;;;;;5484037;26;20736;-79
2024/04/21 07:40:36;;;;;;;11.77;10.73;;;;;;;;;;5480542;26;20282;-79
2024/04/21 07:43:02;;;;;;;12.67;11.23;;;;;;;;;;5488387;26;20516;-79
2024/04/21 07:45:28;;;;;;;14.33;12.17;;;;;;;;;;5493935;26;20466;-79
2024/04/21 07:47:54;;;;;;;13.80;12.80;;;;;;;;;;5488148;26;20465;-79
2024/04/21 07:50:20;;;;;;;14.70;13.70;;;;;;;;;;5494431;26;20461;-79
2024/04/21 07:52:46;;;;;;;14.10;12.80;;;;;;;;;;5489561;26;20446;-80
2024/04/21 07:55:12;;;;;;;15.13;13.50;;;;;;;;;;5486204;26;20459;-79
2024/04/21 07:57:38;;;;;;;14.63;13.20;;;;;;;;;;5499927;26;20275;-78
2024/04/21 08:00:05;;;;;;;14.07;12.67;;;;;;;;;;5489368;26;20520;-78
2024/04/21 08:02:31;;;;;;;16.17;12.30;;;;;;;;;;5483958;26;20462;-78
2024/04/21 08:04:57;;;;;;;20.83;11.88;;;;;;;;;;5486634;26;20319;-79
2024/04/21 08:07:23;;;;;;;15.05;12.73;;;;;;;;;;5493512;26;20308;-78
2024/04/21 08:09:49;;;;;;;20.13;13.90;;;;;;;;;;5487360;26;20350;-79
2024/04/21 08:12:15;;;;;;;14.47;12.97;;;;;;;;;;5489383;26;20232;-78
2024/04/21 08:14:41;;;;;;;13.23;11.97;;;;;;;;;;5452603;26;20466;-79
2024/04/21 08:17:07;;;;;;;16.17;12.10;;;;;;;;;;5486339;26;20449;-80
2024/04/21 08:19:33;;;;;;;15.63;11.37;;;;;;;;;;5489963;26;20788;-87
2024/04/21 08:21:59;;;;;;;11.37;10.30;;;;;;;;;;5459840;26;20522;-85
2024/04/21 08:24:25;;;;;;;15.38;9.70;;;;;;;;;;5421940;26;20475;-86
2024/04/21 08:26:54;;;;;;;12.60;10.57;;;;;;;;;;5460815;26;20233;-77
2024/04/21 08:29:22;;;;;;;15.18;10.30;;;;;;;;;;5492611;26;20480;-79
2024/04/21 08:31:48;;;;;;;14.55;10.20;;;;;;;;;;5485021;26;20236;-79
2024/04/21 08:34:13;;;;;;;11.00;10.10;;;;;;;;;;5486922;26;20800;-79
2024/04/21 08:36:39;;;;;;;10.70;9.60;;;;;;;;;;5492008;26;20467;-79
2024/04/21 08:39:05;;;;;;;12.33;10.60;;;;;;;;;;5489265;26;20457;-79
2024/04/21 08:41:38;;;;;;;12.63;11.57;;;;;;;;;;5490230;26;20978;-79
2024/04/21 08:44:04;;;;;;;12.15;10.75;;;;;;;;;;5486666;26;20520;-80
2024/04/21 08:46:30;;;;;;;12.27;11.15;;;;;;;;;;5502590;26;20238;-79
2024/04/21 08:48:56;;;;;;;12.05;10.88;;;;;;;;;;5493343;26;20241;-79
2024/04/21 08:51:23;;;;;;;13.30;9.85;;;;;;;;;;5493871;26;20228;-79
2024/04/21 08:53:49;;;;;;;9.45;8.88;;;;;;;;;;5480541;26;20255;-81
2024/04/21 08:56:18;;;;;;;14.30;9.10;;;;;;;;;;5455343;26;20280;-79
2024/04/21 08:58:47;;;;;;;11.02;8.15;;;;;;;;;;5484603;26;20561;-79
2024/04/21 09:01:14;;;;;;;12.40;9.20;;;;;;;;;;5484590;26;20280;-79
2024/04/21 09:03:42;;;;;;;8.82;8.07;;;;;;;;;;5490849;26;20587;-80
2024/04/21 09:06:09;;;;;;;9.73;8.80;;;;;;;;;;5496177;26;20308;-80
2024/04/21 09:08:35;;;;;;;10.02;7.90;;;;;;;;;;5487477;26;20228;-81
2024/04/21 09:11:01;;;;;;;9.57;8.63;;;;;;;;;;5490819;26;20271;-80
2024/04/21 09:13:27;;;;;;;8.37;7.67;;;;;;;;;;5491424;26;20465;-81
2024/04/21 09:15:53;;;;;;;9.50;8.60;;;;;;;;;;5485537;26;20465;-80
2024/04/21 09:18:19;;;;;;;10.20;9.43;;;;;;;;;;5488386;26;20466;-80
2024/04/21 09:20:48;;;;;;;8.65;7.85;;;;;;;;;;5457942;26;20574;-79
2024/04/21 09:23:14;;;;;;;7.60;7.00;;;;;;;;;;5485770;26;20247;-79
2024/04/21 09:25:40;;;;;;;8.18;7.63;;;;;;;;;;5476608;26;20294;-82
2024/04/21 09:28:06;;;;;;;8.47;7.90;;;;;;;;;;5479832;26;20247;-81
2024/04/21 09:30:32;;;;;;;9.03;8.33;;;;;;;;;;5477202;26;20603;-82
2024/04/21 09:32:58;;;;;;;8.23;7.67;;;;;;;;;;5482172;26;20458;-82
2024/04/21 09:35:24;;;;;;;8.45;7.85;;;;;;;;;;5475271;26;20471;-82
2024/04/21 09:37:53;;;;;;;8.20;7.57;;;;;;;;;;5479416;26;20244;-81
2024/04/21 09:40:20;;;;;;;8.18;7.47;;;;;;;;;;5478007;26;20874;-81
2024/04/21 09:42:47;;;;;;;7.05;6.65;;;;;;;;;;5478374;26;20249;-80
2024/04/21 09:45:14;;;;;;;7.93;7.38;;;;;;;;;;5468006;26;20283;-82
2024/04/21 09:47:42;;;;;;;7.03;6.47;;;;;;;;;;5483574;26;20236;-81
2024/04/21 09:50:09;;;;;;;6.80;6.40;;;;;;;;;;5490504;26;20599;-80
2024/04/21 09:52:36;;;;;;;7.05;6.55;;;;;;;;;;5489953;26;20283;-82
2024/04/21 09:55:02;;;;;;;7.55;7.05;;;;;;;;;;5442924;26;20241;-81
2024/04/21 09:57:30;;;;;;;7.30;6.90;;;;;;;;;;5491938;26;20275;-83
2024/04/21 10:00:01;;;;;;;6.90;6.47;;;;;;;;;;5487899;26;20229;-82
2024/04/21 10:02:30;;;;;;;7.30;6.63;;;;;;;;;;5483568;26;20562;-83
2024/04/21 10:05:00;;;;;;;7.28;6.68;;;;;;;;;;5489091;26;20271;-82
2024/04/21 10:07:27;;;;;;;7.40;6.90;;;;;;;;;;5486925;26;20275;-84
2024/04/21 10:09:54;;;;;;;8.13;7.63;;;;;;;;;;5481955;26;20912;-82
2024/04/21 10:12:20;;;;;;;8.48;7.70;;;;;;;;;;5486850;26;20232;-81
2024/04/21 10:14:47;;;;;;;8.02;7.30;;;;;;;;;;5474971;26;20236;-83
2024/04/21 10:17:13;;;;;;;7.18;6.63;;;;;;;;;;5489174;26;20233;-83
2024/04/21 10:19:39;;;;;;;6.82;6.45;;;;;;;;;;5483416;26;21169;-82
2024/04/21 10:22:05;;;;;;;7.47;6.93;;;;;;;;;;5489186;26;20304;-85
2024/04/21 10:24:31;;;;;;;7.28;6.88;;;;;;;;;;5481984;26;20561;-84
2024/04/21 10:27:01;;;;;;;6.50;6.10;;;;;;;;;;5475883;26;20274;-83
2024/04/21 10:29:29;;;;;;;6.70;6.20;;;;;;;;;;5483966;26;20449;-85
2024/04/21 10:31:55;;;;;;;7.10;6.70;;;;;;;;;;5449296;26;20507;-83
2024/04/21 10:34:21;;;;;;;7.20;6.80;;;;;;;;;;5448322;26;20540;-83
2024/04/21 10:36:47;;;;;;;5.90;5.50;;;;;;;;;;5491316;26;21011;-84
2024/04/21 10:39:25;;;;;;;6.60;6.10;;;;;;;;;;5489159;26;20450;-85
2024/04/21 10:41:52;;;;;;;7.53;7.00;;;;;;;;;;5459854;26;20275;-84
2024/04/21 10:44:18;;;;;;;6.03;5.63;;;;;;;;;;5485928;26;20732;-84
2024/04/21 10:46:44;;;;;;;6.75;6.35;;;;;;;;;;5485645;26;20228;-85
2024/04/21 10:49:10;;;;;;;6.03;5.73;;;;;;;;;;5483164;26;20330;-85
2024/04/21 10:51:36;;;;;;;7.00;6.50;;;;;;;;;;5483020;26;20530;-84
2024/04/21 10:54:02;;;;;;;6.47;6.07;;;;;;;;;;5477339;26;20523;-84
2024/04/21 10:56:28;;;;;;;6.53;6.13;;;;;;;;;;5451350;26;20455;-82
2024/04/21 10:58:54;;;;;;;6.50;6.20;;;;;;;;;;5422476;26;21005;-84
2024/04/21 11:01:22;;;;;;;6.57;6.17;;;;;;;;;;5499880;26;20450;-84
2024/04/21 11:03:48;;;;;;;6.67;6.27;;;;;;;;;;5483192;26;20559;-85
2024/04/21 11:06:18;;;;;;;7.03;6.63;;;;;;;;;;5491499;26;21004;-85
2024/04/21 11:08:47;;;;;;;6.10;5.70;;;;;;;;;;5487168;26;20571;-83
2024/04/21 11:11:13;;;;;;;6.00;5.70;;;;;;;;;;5476645;26;20540;-85
2024/04/21 11:13:40;;;;;;;6.73;6.33;;;;;;;;;;5476043;26;20639;-85
2024/04/21 11:16:12;;;;;;;6.90;6.40;;;;;;;;;;5486408;26;20554;-83
2024/04/21 11:18:41;;;;;;;6.47;6.07;;;;;;;;;;5482933;26;20232;-84
2024/04/21 11:21:07;;;;;;;7.17;6.77;;;;;;;;;;5491232;26;20506;-83
2024/04/21 11:23:33;;;;;;;6.70;6.30;;;;;;;;;;5459670;26;20458;-82
2024/04/21 11:26:02;;;;;;;6.40;6.00;;;;;;;;;;5486249;26;20922;-83
2024/04/21 11:28:29;;;;;;;6.70;6.30;;;;;;;;;;5444656;26;20565;-82
2024/04/21 11:31:06;;;;;;;5.93;5.63;;;;;;;;;;5445580;26;20523;-81
2024/04/21 11:33:32;;;;;;;6.63;6.23;;;;;;;;;;5478873;26;20461;-81
2024/04/21 11:36:00;;;;;;;6.43;6.07;;;;;;;;;;5486561;26;20526;-81
2024/04/21 11:38:26;;;;;;;5.90;5.60;;;;;;;;;;5474125;26;20450;-81
2024/04/21 11:40:52;;;;;;;6.93;6.53;;;;;;;;;;5486483;26;20528;-82
2024/04/21 11:43:21;;;;;;;6.67;6.10;;;;;;;;;;5458621;26;21111;-82
2024/04/21 11:45:47;;;;;;;6.57;6.20;;;;;;;;;;5474390;26;21020;-82
2024/04/21 11:48:13;;;;;;;5.87;5.53;;;;;;;;;;5489260;26;20461;-81
2024/04/21 11:50:39;;;;;;;6.43;6.13;;;;;;;;;;5486703;26;20507;-83
2024/04/21 11:53:05;;;;;;;6.33;6.03;;;;;;;;;;5487496;26;20577;-82
2024/04/21 11:55:31;;;;;;;6.20;5.90;;;;;;;;;;5482488;26;20613;-81
2024/04/21 11:57:57;;;;;;;6.07;5.77;;;;;;;;;;5485475;26;20462;-81
2024/04/21 12:00:26;;;;;;;6.57;6.00;;;;;;;;;;5458767;26;20514;-82
2024/04/21 12:02:52;;;;;;;6.37;6.07;;;;;;;;;;5490786;26;20450;-80
2024/04/21 12:05:18;;;;;;;6.47;6.07;;;;;;;;;;5490215;26;20522;-82
2024/04/21 12:07:44;;;;;;;5.40;5.10;;;;;;;;;;5483644;26;20515;-80
2024/04/21 12:10:12;;;;;;;6.80;6.40;;;;;;;;;;5486984;26;20457;-84
2024/04/21 12:12:38;;;;;;;5.90;5.60;;;;;;;;;;5480917;26;20822;-80
2024/04/21 12:15:04;;;;;;;6.27;5.97;;;;;;;;;;5479273;26;20511;-82
2024/04/21 12:17:30;;;;;;;6.50;6.20;;;;;;;;;;5488440;26;20481;-81
2024/04/21 12:19:56;;;;;;;5.90;5.67;;;;;;;;;;5433385;26;20576;-82
2024/04/21 12:22:22;;;;;;;6.67;6.07;;;;;;;;;;5475306;26;20453;-83
2024/04/21 12:24:48;;;;;;;7.33;6.83;;;;;;;;;;5448948;26;20559;-82
2024/04/21 12:27:14;;;;;;;7.00;6.60;;;;;;;;;;5472899;26;20474;-83
2024/04/21 12:29:40;;;;;;;6.00;5.70;;;;;;;;;;5484651;26;20513;-83
2024/04/21 12:32:06;;;;;;;6.00;5.70;;;;;;;;;;5472884;26;20554;-83
2024/04/21 12:34:32;;;;;;;6.63;6.20;;;;;;;;;;5479412;26;20537;-84
2024/04/21 12:36:58;;;;;;;6.23;5.83;;;;;;;;;;5458684;26;20473;-83
2024/04/21 12:39:24;;;;;;;7.00;6.50;;;;;;;;;;5456583;26;20533;-84
2024/04/21 12:41:50;;;;;;;5.97;5.67;;;;;;;;;;5455434;26;20513;-84
2024/04/21 12:44:16;;;;;;;6.33;6.03;;;;;;;;;;5481788;26;20465;-86
2024/04/21 12:46:43;;;;;;;4.80;4.60;;;;;;;;;;5480373;26;20461;-84
2024/04/21 12:49:09;;;;;;;5.10;4.70;;;;;;;;;;5489891;26;20506;-84
2024/04/21 12:51:35;;;;;;;4.87;4.63;;;;;;;;;;5478049;26;20455;-83
2024/04/21 12:54:01;;;;;;;5.90;5.60;;;;;;;;;;5489519;26;20461;-83
2024/04/21 12:56:27;;;;;;;5.70;5.40;;;;;;;;;;5502762;26;20544;-82
2024/04/21 12:58:53;;;;;;;6.00;5.70;;;;;;;;;;5487821;26;20505;-83
2024/04/21 13:01:19;;;;;;;6.70;6.30;;;;;;;;;;5472082;26;20496;-86
2024/04/21 13:23:38;;;;;;;5.60;5.30;;;;;;;;;;5761433;21;20615;31
2024/04/21 13:26:04;;;;;;;6.43;6.03;;;;;;;;;;5135168;27;20501;-85
2024/04/21 13:28:32;;;;;;;6.43;6.13;;;;;;;;;;5112041;28;20457;-85
2024/04/21 13:30:59;;;;;;;5.47;5.13;;;;;;;;;;5113271;28;20485;-84
2024/04/21 13:33:25;;;;;;;5.77;5.47;;;;;;;;;;5114896;28;20461;-83
2024/04/21 13:35:51;;;;;;;6.40;6.10;;;;;;;;;;5101421;27;20533;-83
2024/04/21 13:38:17;;;;;;;6.20;5.80;;;;;;;;;;5120620;27;20804;-83
2024/04/21 13:40:43;;;;;;;5.67;5.27;;;;;;;;;;5130295;27;20486;-83
2024/04/21 13:43:09;;;;;;;4.73;4.43;;;;;;;;;;5118156;27;20575;-83
2024/04/21 13:45:35;;;;;;;5.00;4.60;;;;;;;;;;5116649;27;20553;-85
2024/04/21 13:48:01;;;;;;;6.00;5.70;;;;;;;;;;5106953;27;20825;-84
2024/04/21 13:53:03;;;;;;;5.80;5.40;;;;;;;;;;5583841;21;20588;-85
2024/04/21 13:55:29;;;;;;;6.00;5.70;;;;;;;;;;5163857;27;20863;-85
2024/04/21 13:57:55;;;;;;;5.50;5.20;;;;;;;;;;5213157;27;20473;-84
2024/04/21 14:00:21;;;;;;;6.07;5.77;;;;;;;;;;5217943;27;20473;-84
2024/04/21 14:02:47;;;;;;;5.93;5.43;;;;;;;;;;5214584;27;20679;-84
2024/04/21 14:05:13;;;;;;;5.43;5.23;;;;;;;;;;5194703;27;20461;-90
2024/04/21 14:07:39;;;;;;;5.57;5.27;;;;;;;;;;5148391;27;20527;-86
2024/04/21 14:10:05;;;;;;;5.07;4.80;;;;;;;;;;5189555;27;20470;-86
2024/04/21 14:12:31;;;;;;;5.60;5.40;;;;;;;;;;5200642;27;20475;-88
2024/04/21 14:14:58;;;;;;;8.50;7.83;;;;;;;;;;5234954;27;20528;-87
2024/04/21 14:17:26;;;;;;;6.93;6.60;;;;;;;;;;5218189;27;20501;-86
2024/04/21 14:19:52;;;;;;;7.70;7.30;;;;;;;;;;5219398;27;21024;-83
2024/04/21 14:22:18;;;;;;;7.83;7.30;;;;;;;;;;5230044;27;20570;-87
2024/04/21 14:24:44;;;;;;;7.40;7.07;;;;;;;;;;5231327;27;20489;-87
2024/04/21 14:27:11;;;;;;;7.07;6.67;;;;;;;;;;5215000;27;20481;-83
2024/04/21 14:29:38;;;;;;;6.70;6.30;;;;;;;;;;5191618;27;20471;-84
2024/04/21 14:32:04;;;;;;;7.67;7.07;;;;;;;;;;5215638;27;20532;-84
2024/04/21 14:34:30;;;;;;;6.10;5.70;;;;;;;;;;5215508;27;20528;-83
2024/04/21 14:36:56;;;;;;;7.70;7.20;;;;;;;;;;5229208;27;20727;-84
2024/04/21 14:39:22;;;;;;;6.60;6.13;;;;;;;;;;5219650;27;20497;-82
2024/04/21 14:41:48;;;;;;;7.50;6.80;;;;;;;;;;5215836;27;20533;-83
2024/04/21 14:44:14;;;;;;;6.20;5.90;;;;;;;;;;5223472;27;20484;-83
2024/04/21 14:46:46;;;;;;;6.47;6.07;;;;;;;;;;5222404;27;20525;-83